createdAt,value
2022-10-06T00:08:53.305Z,0.93
2022-10-06T00:18:56.717Z,1.10
2022-10-06T00:28:58.550Z,0.90
2022-10-06T00:38:59.977Z,1.02
2022-10-06T00:49:16.566Z,0.57
2022-10-06T00:59:18.774Z,0.88
2022-10-06T01:09:21.509Z,0.43
2022-10-06T01:19:40.621Z,0.57
2022-10-06T01:29:43.393Z,1.13
2022-10-06T01:39:45.213Z,0.50
2022-10-06T01:49:47.389Z,0.75
2022-10-06T01:59:54.436Z,0.75
2022-10-06T02:09:57.794Z,1.33
2022-10-06T02:19:59.346Z,1.90
2022-10-06T02:30:01.853Z,0.50
2022-10-06T02:40:04.830Z,0.88
2022-10-06T02:50:08.221Z,0.70
2022-10-06T03:00:10.956Z,0.60
2022-10-06T03:10:12.521Z,0.70
2022-10-06T03:20:14.085Z,0.70
2022-10-06T03:30:15.762Z,0.55
2022-10-06T03:40:17.623Z,0.73
2022-10-06T03:50:19.096Z,0.30
2022-10-06T04:00:20.781Z,0.65
2022-10-06T04:10:22.178Z,1.10
2022-10-06T04:20:23.902Z,1.15
2022-10-06T04:30:26.327Z,0.43
2022-10-06T04:40:28.098Z,0.38
2022-10-06T04:50:29.579Z,0.50
2022-10-06T05:00:48.993Z,0.50
2022-10-06T05:10:50.646Z,1.35
2022-10-06T05:21:04.431Z,4.78
2022-10-06T05:31:14.546Z,3.83
2022-10-06T05:41:21.697Z,3.90
2022-10-06T05:51:30.339Z,2.75
2022-10-06T06:01:35.276Z,1.70
2022-10-06T06:11:43.099Z,3.53
2022-10-06T06:21:44.906Z,4.83
2022-10-06T06:31:48.491Z,1.83
2022-10-06T06:41:50.980Z,2.43
2022-10-06T06:52:09.029Z,2.85
2022-10-06T07:02:13.679Z,5.77
2022-10-06T07:12:18.822Z,2.85
2022-10-06T07:22:48.930Z,2.55
2022-10-06T07:32:53.518Z,3.40
2022-10-06T07:42:56.463Z,4.03
2022-10-06T07:53:08.605Z,3.53
2022-10-06T08:03:19.295Z,2.58
2022-10-06T08:13:21.245Z,2.42
2022-10-06T08:23:22.821Z,2.53
2022-10-06T08:33:24.250Z,3.38
2022-10-06T08:43:26.025Z,2.50
2022-10-06T08:53:39.678Z,3.20
2022-10-06T09:03:43.529Z,2.33
2022-10-06T09:13:54.150Z,3.55
2022-10-06T09:24:02.356Z,2.25
2022-10-06T09:34:12.822Z,2.90
2022-10-06T09:44:28.995Z,2.22
2022-10-06T09:54:31.562Z,1.85
2022-10-06T10:04:37.330Z,2.20
2022-10-06T10:14:38.950Z,2.95
2022-10-06T10:25:04.600Z,4.75
2022-10-06T10:35:25.432Z,2.55
2022-10-06T10:45:35.119Z,2.75
2022-10-06T10:55:42.149Z,2.40
2022-10-06T11:06:19.026Z,1.40
2022-10-06T11:16:40.683Z,3.10
2022-10-06T11:27:09.677Z,1.70
2022-10-06T11:37:35.208Z,3.25
2022-10-06T11:58:37.307Z,1.02
2022-10-06T12:08:37.922Z,1.77
2022-10-06T12:19:07.485Z,2.53
2022-10-06T12:29:27.389Z,1.73
2022-10-06T12:39:28.791Z,2.45
2022-10-06T12:49:35.280Z,1.48
2022-10-06T12:59:38.438Z,2.08
2022-10-06T13:09:39.904Z,1.77
2022-10-06T13:19:44.411Z,2.10
2022-10-06T13:29:45.875Z,4.63
2022-10-06T13:39:47.365Z,3.38
2022-10-06T13:49:53.385Z,2.17
2022-10-06T14:00:23.628Z,1.17
2022-10-06T14:10:31.724Z,2.35
2022-10-06T14:20:38.384Z,2.00
2022-10-06T14:30:40.403Z,0.75
2022-10-06T14:40:42.688Z,1.08
2022-10-06T14:50:45.035Z,0.82
2022-10-06T15:00:46.620Z,1.10
2022-10-06T15:10:52.283Z,2.88
2022-10-06T15:20:54.174Z,1.17
2022-10-06T15:30:56.878Z,1.77
2022-10-06T15:41:04.402Z,3.30
2022-10-06T15:51:05.973Z,4.95
2022-10-06T16:01:11.459Z,7.13
2022-10-06T16:11:12.922Z,4.70
2022-10-06T16:21:14.328Z,6.47
2022-10-06T16:31:16.119Z,5.32
2022-10-06T16:41:18.287Z,3.60
2022-10-06T16:51:30.054Z,4.60
2022-10-06T17:01:34.579Z,4.13
2022-10-06T17:11:36.122Z,2.77
2022-10-06T17:21:46.190Z,2.83
2022-10-06T17:31:50.957Z,5.93
2022-10-06T17:41:53.647Z,2.63
2022-10-06T17:51:55.402Z,2.70
2022-10-06T18:01:58.867Z,3.50
2022-10-06T18:12:02.502Z,2.95
2022-10-06T18:22:12.852Z,3.08
2022-10-06T18:42:36.157Z,4.13
2022-10-06T18:52:37.574Z,3.03
2022-10-06T19:02:39.036Z,4.15
2022-10-06T19:12:40.453Z,1.90
2022-10-06T19:22:43.318Z,4.30
2022-10-06T19:32:44.745Z,1.67
2022-10-06T19:42:49.258Z,2.83
2022-10-06T19:52:51.589Z,1.30
2022-10-06T20:02:53.090Z,1.92
2022-10-06T20:12:55.452Z,1.42
2022-10-06T20:22:56.911Z,1.77
2022-10-06T20:32:58.369Z,2.47
2022-10-06T20:43:00.770Z,2.55
2022-10-06T20:53:02.213Z,2.75
2022-10-06T21:03:03.721Z,1.73
2022-10-06T21:13:05.229Z,2.40
2022-10-06T21:23:06.699Z,2.00
2022-10-06T21:33:08.196Z,0.93
2022-10-06T21:43:09.689Z,2.80
2022-10-06T21:53:11.136Z,2.40
2022-10-06T22:03:12.802Z,2.47
2022-10-06T22:13:14.288Z,2.90
2022-10-06T22:23:15.780Z,0.82
2022-10-06T22:33:17.263Z,1.00
2022-10-06T22:43:18.840Z,1.80
2022-10-06T22:53:23.128Z,1.13
2022-10-06T23:03:24.806Z,0.70
2022-10-06T23:13:29.708Z,2.17
2022-10-06T23:23:31.604Z,2.78
2022-10-06T23:33:33.742Z,1.33
2022-10-06T23:43:35.383Z,1.25
2022-10-06T23:53:37.170Z,1.67
